Time;durP1;ratioP1;P1;durP2;ratioP2;P2;SDS_P1;SDS_P2;PMS_P1;PMS_P2;Temp;Humidity;BMP_temperature;BMP_pressure;BME280_temperature;BME280_humidity;BME280_pressure;Samples;Min_cycle;Max_cycle;Signal;HPM_P1;HPM_P2
2021/11/28 00:00:19;;;;;;;7.38;4.25;;;;;;;-1.07;100.00;93736.31;5011650;28;24790;-73
2021/11/28 00:02:46;;;;;;;5.97;4.03;;;;;;;-1.14;100.00;93734.97;5011632;28;24988;-73
2021/11/28 00:05:15;;;;;;;7.80;4.40;;;;;;;-1.21;100.00;93734.47;5011443;28;24486;-73
2021/11/28 00:08:07;;;;;;;5.15;4.03;;;;;;;-1.16;100.00;93735.03;5011399;28;24519;-73
2021/11/28 00:10:51;;;;;;;5.50;4.50;;;;;;;-1.10;100.00;93739.00;5014825;28;24441;-73
2021/11/28 00:13:34;;;;;;;6.35;4.20;;;;;;;-1.09;100.00;93743.19;5014969;28;24429;-72
2021/11/28 00:16:02;;;;;;;5.50;4.50;;;;;;;-1.09;100.00;93740.63;5014790;28;24416;-73
2021/11/28 00:18:29;;;;;;;7.10;5.60;;;;;;;-1.03;100.00;93737.81;5014802;28;24416;-72
2021/11/28 00:20:56;;;;;;;7.03;5.60;;;;;;;-1.05;100.00;93737.03;5014132;28;24428;-72
2021/11/28 00:23:23;;;;;;;5.88;4.13;;;;;;;-1.06;100.00;93733.69;5013721;28;24424;-72
2021/11/28 00:25:51;;;;;;;5.60;4.15;;;;;;;-0.90;100.00;93732.91;5013223;28;24420;-72
2021/11/28 00:28:18;;;;;;;4.53;3.93;;;;;;;-0.79;100.00;93734.00;5013601;28;24811;-73
2021/11/28 00:30:45;;;;;;;6.15;4.18;;;;;;;-0.75;100.00;93725.31;5013387;28;24432;-72
2021/11/28 00:33:11;;;;;;;13.03;6.83;;;;;;;-0.67;100.00;93726.63;5013798;28;24499;-72
2021/11/28 00:35:37;;;;;;;14.20;8.93;;;;;;;-0.66;100.00;93731.66;5014086;28;24432;-72
2021/11/28 00:38:04;;;;;;;9.75;6.65;;;;;;;-0.64;100.00;93726.47;5013006;28;24962;-72
2021/11/28 00:40:30;;;;;;;7.55;4.80;;;;;;;-0.59;100.00;93729.63;5011046;28;24431;-72
2021/11/28 00:42:59;;;;;;;4.75;3.83;;;;;;;-0.57;100.00;93726.06;5010811;28;24986;-72
2021/11/28 00:45:25;;;;;;;6.15;3.35;;;;;;;-0.56;100.00;93720.09;5010914;28;24540;-72
2021/11/28 00:47:52;;;;;;;3.75;2.97;;;;;;;-0.57;100.00;93722.72;5010900;28;24431;-72
2021/11/28 00:50:26;;;;;;;4.68;3.15;;;;;;;-0.54;100.00;93727.66;5010895;28;24428;-72
2021/11/28 00:52:54;;;;;;;4.97;3.10;;;;;;;-0.49;100.00;93731.56;5011054;28;24424;-72
2021/11/28 00:55:20;;;;;;;4.47;2.80;;;;;;;-0.46;100.00;93725.50;5010275;28;25024;-72
2021/11/28 00:57:47;;;;;;;3.67;2.80;;;;;;;-0.43;100.00;93732.19;5010928;28;24434;-72
2021/11/28 01:00:16;;;;;;;3.88;3.00;;;;;;;-0.44;100.00;93728.81;5010983;28;24428;-72
2021/11/28 01:02:42;;;;;;;9.32;3.92;;;;;;;-0.42;100.00;93732.09;5010724;28;24416;-72
2021/11/28 01:05:09;;;;;;;4.55;3.42;;;;;;;-0.42;100.00;93732.09;5010490;28;24977;-72
2021/11/28 01:07:38;;;;;;;4.32;3.17;;;;;;;-0.43;100.00;93734.72;5011889;28;24428;-72
2021/11/28 01:10:06;;;;;;;4.93;3.15;;;;;;;-0.42;100.00;93739.72;5014708;28;24455;-72
2021/11/28 01:12:33;;;;;;;4.43;3.10;;;;;;;-0.37;100.00;93734.38;5014841;28;24418;-72
2021/11/28 01:14:59;;;;;;;5.10;3.65;;;;;;;-0.37;100.00;93742.84;5014565;28;24416;-72
2021/11/28 01:17:28;;;;;;;5.77;3.47;;;;;;;-0.21;100.00;93745.41;5014651;28;24993;-72
2021/11/28 01:19:55;;;;;;;5.68;3.20;;;;;;;-0.27;100.00;93746.53;5014722;28;24463;-72
2021/11/28 01:22:21;;;;;;;7.72;4.85;;;;;;;-0.27;100.00;93766.06;5014430;28;24787;-72
2021/11/28 01:24:48;;;;;;;7.38;4.47;;;;;;;-0.33;100.00;93757.03;5014721;28;24490;-72
2021/11/28 01:27:15;;;;;;;6.00;3.20;;;;;;;-0.35;100.00;93765.66;5014307;28;24834;-72
2021/11/28 01:29:43;;;;;;;3.92;2.88;;;;;;;-0.38;100.00;93764.06;5014232;28;25020;-72
2021/11/28 01:32:10;;;;;;;5.10;2.85;;;;;;;-0.36;100.00;93764.00;5014429;28;24455;-72
2021/11/28 01:34:39;;;;;;;4.57;2.95;;;;;;;-0.32;100.00;93758.69;5014295;28;24427;-72
2021/11/28 01:37:05;;;;;;;4.85;3.10;;;;;;;-0.32;100.00;93761.22;5013908;28;24424;-72
2021/11/28 01:39:32;;;;;;;3.22;2.65;;;;;;;-0.31;100.00;93762.03;5014382;28;24494;-72
2021/11/28 01:41:58;;;;;;;3.92;2.65;;;;;;;-0.29;100.00;93763.59;5014114;28;24968;-72
2021/11/28 01:44:25;;;;;;;3.97;2.85;;;;;;;-0.27;100.00;93766.06;5014391;28;24428;-72
2021/11/28 01:46:52;;;;;;;6.85;2.83;;;;;;;-0.30;100.00;93772.16;5013775;28;24975;-72
2021/11/28 01:49:20;;;;;;;6.70;2.75;;;;;;;-0.34;100.00;93760.47;5013957;28;24448;-72
2021/11/28 01:51:50;;;;;;;5.38;3.05;;;;;;;-0.32;100.00;93768.84;5014317;28;24879;-72
2021/11/28 01:54:17;;;;;;;5.38;3.00;;;;;;;-0.26;100.00;93762.59;5014052;28;24786;-72
2021/11/28 01:56:47;;;;;;;4.93;3.00;;;;;;;-0.23;100.00;93771.81;5013415;28;24965;-73
2021/11/28 01:59:14;;;;;;;4.80;2.70;;;;;;;-0.19;100.00;93781.72;5013823;28;24830;-72
2021/11/28 02:01:41;;;;;;;3.35;2.85;;;;;;;-0.19;100.00;93769.00;5013849;28;24830;-72
2021/11/28 02:04:09;;;;;;;8.00;3.35;;;;;;;-0.14;100.00;93772.16;5013696;28;24950;-72
2021/11/28 02:06:37;;;;;;;7.50;2.77;;;;;;;-0.23;100.00;93771.81;5013496;28;24428;-72
2021/11/28 02:09:06;;;;;;;4.82;3.05;;;;;;;-0.25;100.00;93774.44;5013776;28;24455;-72
2021/11/28 02:11:32;;;;;;;6.10;2.80;;;;;;;-0.38;100.00;93769.16;5013560;28;24945;-72
2021/11/28 02:13:59;;;;;;;4.47;3.30;;;;;;;-0.58;100.00;93762.59;5013645;28;24428;-72
2021/11/28 02:16:25;;;;;;;4.05;3.30;;;;;;;-0.67;100.00;93768.13;5013148;28;24433;-72
2021/11/28 02:18:52;;;;;;;5.57;3.15;;;;;;;-0.66;100.00;93766.44;5013222;28;24416;-72
2021/11/28 02:21:20;;;;;;;4.80;3.25;;;;;;;-0.65;100.00;93765.53;5013559;28;24429;-72
2021/11/28 02:23:46;;;;;;;4.32;3.08;;;;;;;-0.60;100.00;93763.56;5013357;28;24989;-72
2021/11/28 02:26:15;;;;;;;2.97;2.65;;;;;;;-0.52;100.00;93763.97;5013096;28;24479;-72
2021/11/28 02:28:44;;;;;;;3.10;2.60;;;;;;;-0.46;100.00;93767.94;5013134;28;24455;-72
2021/11/28 02:31:11;;;;;;;5.20;3.03;;;;;;;-0.43;100.00;93770.31;5013181;28;24424;-72
2021/11/28 02:33:38;;;;;;;4.75;3.13;;;;;;;-0.53;100.00;93770.78;5013477;28;24416;-72
2021/11/28 02:36:05;;;;;;;4.07;3.05;;;;;;;-0.52;100.00;93763.97;5012911;28;24428;-72
2021/11/28 02:38:33;;;;;;;3.35;2.63;;;;;;;-0.56;100.00;93765.84;5013278;28;24423;-72
2021/11/28 02:41:01;;;;;;;4.85;2.75;;;;;;;-0.74;100.00;93766.81;5013165;28;24427;-72
2021/11/28 02:43:29;;;;;;;4.90;3.03;;;;;;;-0.82;100.00;93772.28;5012879;28;24439;-72
2021/11/28 02:45:56;;;;;;;6.50;3.40;;;;;;;-0.89;100.00;93772.66;5012917;28;24491;-72
2021/11/28 02:48:22;;;;;;;4.85;3.35;;;;;;;-0.85;100.00;93769.09;5012878;28;24428;-72
2021/11/28 02:50:49;;;;;;;6.88;3.72;;;;;;;-0.91;100.00;93764.31;5013148;28;24419;-72
2021/11/28 02:53:16;;;;;;;11.13;3.47;;;;;;;-0.97;100.00;93765.41;5013009;28;24458;-72
2021/11/28 02:55:46;;;;;;;4.03;2.90;;;;;;;-0.87;100.00;93761.53;5012561;28;24432;-72
2021/11/28 02:58:14;;;;;;;4.07;2.90;;;;;;;-0.83;100.00;93763.00;5012684;28;25149;-73
2021/11/28 03:00:45;;;;;;;4.28;3.13;;;;;;;-0.89;100.00;93768.41;5012722;28;24974;-73
2021/11/28 03:03:11;;;;;;;5.70;3.47;;;;;;;-0.96;100.00;93756.94;5013100;28;24763;-72
2021/11/28 03:05:38;;;;;;;5.82;3.38;;;;;;;-1.05;100.00;93755.66;5012260;28;24946;-72
2021/11/28 03:08:04;;;;;;;4.70;3.10;;;;;;;-0.89;100.00;93762.50;5012545;28;24435;-72
2021/11/28 03:10:34;;;;;;;4.90;3.53;;;;;;;-0.80;100.00;93762.03;5012450;28;24506;-72
2021/11/28 03:13:02;;;;;;;5.67;3.10;;;;;;;-0.76;100.00;93763.53;5012678;28;24436;-72
2021/11/28 03:15:29;;;;;;;3.72;3.15;;;;;;;-0.65;100.00;93757.91;5012373;28;24552;-72
2021/11/28 03:17:55;;;;;;;9.65;4.22;;;;;;;-0.80;100.00;93764.59;5012683;28;24424;-73
2021/11/28 03:20:22;;;;;;;6.25;3.28;;;;;;;-0.87;100.00;93761.53;5012423;28;24639;-73
2021/11/28 03:22:50;;;;;;;4.95;3.30;;;;;;;-0.85;100.00;93758.94;5012308;28;24432;-72
2021/11/28 03:25:20;;;;;;;5.88;3.25;;;;;;;-1.00;100.00;93758.78;5012137;28;24431;-72
2021/11/28 03:27:47;;;;;;;6.93;3.90;;;;;;;-1.02;100.00;93747.88;5012448;28;24980;-72
2021/11/28 03:30:18;;;;;;;10.68;3.67;;;;;;;-1.08;100.00;93748.16;5012178;28;24436;-72
2021/11/28 03:32:45;;;;;;;4.97;3.50;;;;;;;-0.92;100.00;93752.50;5011776;28;24424;-72
2021/11/28 03:35:12;;;;;;;4.15;3.03;;;;;;;-0.86;100.00;93739.47;5011970;28;24423;-72
2021/11/28 03:37:38;;;;;;;5.50;3.10;;;;;;;-0.90;100.00;93745.63;5012167;28;24795;-72
2021/11/28 03:40:09;;;;;;;5.10;3.15;;;;;;;-0.91;100.00;93737.16;5012388;28;24431;-72
2021/11/28 03:42:35;;;;;;;5.47;3.17;;;;;;;-0.89;100.00;93737.09;5012028;28;24432;-72
2021/11/28 03:45:03;;;;;;;6.38;3.42;;;;;;;-1.00;100.00;93735.94;5011871;28;24416;-72
2021/11/28 03:47:31;;;;;;;4.85;3.33;;;;;;;-1.01;100.00;93734.25;5012355;28;24443;-72
2021/11/28 03:49:57;;;;;;;3.08;2.78;;;;;;;-0.87;100.00;93743.75;5012162;28;24450;-72
2021/11/28 03:52:24;;;;;;;6.68;4.47;;;;;;;-0.78;100.00;93735.66;5011799;28;24440;-72
2021/11/28 03:54:51;;;;;;;5.15;4.32;;;;;;;-0.85;100.00;93736.88;5011751;28;24424;-72
2021/11/28 03:57:18;;;;;;;5.78;4.18;;;;;;;-0.89;100.00;93732.84;5011758;28;24486;-73
2021/11/28 03:59:44;;;;;;;4.28;3.33;;;;;;;-0.82;100.00;93731.59;5011795;28;24412;-72
2021/11/28 04:02:11;;;;;;;4.88;3.40;;;;;;;-0.75;100.00;93738.00;5011540;28;24795;-71
2021/11/28 04:04:39;;;;;;;3.97;3.10;;;;;;;-0.68;100.00;93736.00;5011468;28;24424;-73
2021/11/28 04:07:05;;;;;;;7.00;3.40;;;;;;;-0.67;100.00;93736.81;5010978;28;24444;-72
2021/11/28 04:09:31;;;;;;;4.55;3.53;;;;;;;-0.77;100.00;93737.28;5011618;28;24448;-73
2021/11/28 04:11:58;;;;;;;4.45;3.35;;;;;;;-0.77;100.00;93731.38;5011794;28;24427;-72
2021/11/28 04:14:24;;;;;;;6.43;3.20;;;;;;;-0.74;100.00;93732.06;5011778;28;24427;-72
2021/11/28 04:16:51;;;;;;;3.60;3.05;;;;;;;-0.63;100.00;93734.03;5011295;28;24429;-72
2021/11/28 04:19:18;;;;;;;6.60;3.08;;;;;;;-0.62;100.00;93734.88;5011356;28;24432;-72
2021/11/28 04:21:46;;;;;;;5.30;3.40;;;;;;;-0.64;100.00;93732.38;5011462;28;24440;-73
2021/11/28 04:24:12;;;;;;;3.63;3.15;;;;;;;-0.67;100.00;93735.06;5011400;28;24428;-72
2021/11/28 04:26:39;;;;;;;4.68;3.38;;;;;;;-0.59;100.00;93737.25;5011017;28;24429;-73
2021/11/28 04:29:06;;;;;;;5.32;3.70;;;;;;;-0.62;100.00;93732.31;5011339;28;24429;-72
2021/11/28 04:31:32;;;;;;;4.40;3.38;;;;;;;-0.72;100.00;93739.59;5011289;28;24433;-72
2021/11/28 04:33:59;;;;;;;4.25;3.15;;;;;;;-0.61;100.00;93733.94;5011216;28;24424;-73
2021/11/28 04:36:25;;;;;;;8.63;3.20;;;;;;;-0.63;100.00;93731.50;5011000;28;24428;-73
2021/11/28 04:38:53;;;;;;;6.30;4.22;;;;;;;-0.79;100.00;93726.38;5011193;28;24428;-73
2021/11/28 04:41:19;;;;;;;4.43;3.33;;;;;;;-0.86;100.00;93730.13;5010988;28;24443;-72
2021/11/28 04:43:46;;;;;;;4.68;3.20;;;;;;;-0.76;100.00;93730.47;5010875;28;24508;-71
2021/11/28 04:46:12;;;;;;;4.45;3.17;;;;;;;-0.74;100.00;93733.78;5010521;28;24436;-72
2021/11/28 04:48:39;;;;;;;6.05;2.70;;;;;;;-0.67;100.00;93734.25;5011041;28;24429;-72
2021/11/28 04:51:05;;;;;;;5.57;3.45;;;;;;;-0.79;100.00;93739.06;5010942;28;24811;-72
2021/11/28 04:53:32;;;;;;;3.67;3.28;;;;;;;-0.78;100.00;93737.34;5010699;28;24425;-72
2021/11/28 04:56:00;;;;;;;4.60;3.30;;;;;;;-0.97;100.00;93740.81;5010479;28;24424;-72
2021/11/28 04:58:26;;;;;;;5.85;3.28;;;;;;;-0.94;100.00;93741.59;5010564;28;24977;-72
2021/11/28 05:00:53;;;;;;;4.70;3.13;;;;;;;-0.91;100.00;93739.72;5010605;28;24416;-72
2021/11/28 05:03:19;;;;;;;5.20;3.45;;;;;;;-0.84;100.00;93741.03;5010631;28;24838;-72
2021/11/28 05:05:46;;;;;;;5.07;3.05;;;;;;;-0.81;100.00;93732.44;5010541;28;24416;-72
2021/11/28 05:08:12;;;;;;;4.95;3.30;;;;;;;-0.83;100.00;93729.97;5010737;28;24431;-71
2021/11/28 05:10:39;;;;;;;4.82;3.30;;;;;;;-0.82;100.00;93731.59;5010468;28;24492;-72
2021/11/28 05:13:07;;;;;;;5.60;3.40;;;;;;;-0.80;100.00;93731.53;5010538;28;24454;-72
2021/11/28 05:15:33;;;;;;;5.45;3.50;;;;;;;-0.68;100.00;93730.09;5010099;28;24467;-73
2021/11/28 05:18:00;;;;;;;8.90;4.75;;;;;;;-0.59;100.00;93732.16;5010638;28;24431;-72
2021/11/28 05:20:26;;;;;;;9.75;6.43;;;;;;;-0.52;100.00;93725.84;5010585;28;24428;-72
2021/11/28 05:22:53;;;;;;;6.95;4.50;;;;;;;-0.54;100.00;93728.47;5010608;28;24475;-72
2021/11/28 05:25:19;;;;;;;8.30;6.53;;;;;;;-0.61;100.00;93722.06;5010258;28;24417;-72
2021/11/28 05:27:47;;;;;;;10.05;4.60;;;;;;;-0.66;100.00;93729.13;5010376;28;24432;-72
2021/11/28 05:30:16;;;;;;;5.18;3.58;;;;;;;-0.66;100.00;93723.22;5010107;28;24455;-72
2021/11/28 05:32:42;;;;;;;4.10;3.10;;;;;;;-0.59;100.00;93730.44;5010483;28;24462;-72
2021/11/28 05:35:09;;;;;;;4.30;2.88;;;;;;;-0.58;100.00;93732.06;5010032;28;25016;-72
2021/11/28 05:37:36;;;;;;;4.78;3.13;;;;;;;-0.59;100.00;93729.63;5010424;28;24527;-72
2021/11/28 05:40:04;;;;;;;5.30;3.03;;;;;;;-0.50;100.00;93729.94;5010410;28;24417;-72
2021/11/28 05:42:31;;;;;;;8.65;2.72;;;;;;;-0.47;100.00;93728.16;5010202;28;24420;-72
2021/11/28 05:44:57;;;;;;;4.45;2.40;;;;;;;-0.36;100.00;93724.13;5009926;28;24431;-72
2021/11/28 05:47:25;;;;;;;14.18;2.90;;;;;;;-0.15;100.00;93721.34;5010328;28;24427;-72
2021/11/28 05:49:51;;;;;;;3.95;2.70;;;;;;;-0.29;100.00;93722.91;5010050;28;24444;-72
2021/11/28 05:52:18;;;;;;;3.97;3.15;;;;;;;-0.40;100.00;93729.47;5010217;28;24427;-72
2021/11/28 05:54:46;;;;;;;3.90;3.20;;;;;;;-0.38;100.00;93732.75;5011837;28;24420;-72
2021/11/28 05:57:13;;;;;;;5.68;3.33;;;;;;;-0.40;100.00;93730.28;5013522;28;24435;-72
2021/11/28 05:59:39;;;;;;;4.27;3.00;;;;;;;-0.39;100.00;93737.00;5014023;28;24509;-72
2021/11/28 06:02:06;;;;;;;4.90;3.38;;;;;;;-0.16;100.00;93730.69;5013999;28;24460;-72
2021/11/28 06:04:34;;;;;;;4.60;3.38;;;;;;;-0.28;100.00;93737.25;5013847;28;24420;-72
2021/11/28 06:07:00;;;;;;;4.85;3.10;;;;;;;-0.34;100.00;93735.03;5013321;28;24834;-71
2021/11/28 06:09:27;;;;;;;5.43;3.07;;;;;;;-0.41;100.00;93738.81;5013833;28;24447;-71
2021/11/28 06:11:53;;;;;;;3.80;3.00;;;;;;;-0.48;100.00;93742.59;5013459;28;24431;-72
2021/11/28 06:14:20;;;;;;;3.22;2.70;;;;;;;-0.50;100.00;93737.56;5013765;28;24428;-72
2021/11/28 06:16:46;;;;;;;4.78;3.00;;;;;;;-0.45;100.00;93747.50;5013376;28;24432;-72
2021/11/28 06:19:13;;;;;;;3.05;2.70;;;;;;;-0.42;100.00;93747.34;5013443;28;24424;-72
2021/11/28 06:21:40;;;;;;;5.68;3.10;;;;;;;-0.50;100.00;93746.94;5013300;28;24436;-72
2021/11/28 06:24:07;;;;;;;5.50;4.28;;;;;;;-0.59;100.00;93747.41;5013384;28;24425;-73
2021/11/28 06:26:34;;;;;;;6.55;4.63;;;;;;;-0.48;100.00;93747.69;5012818;28;24427;-72
2021/11/28 06:29:03;;;;;;;7.13;3.75;;;;;;;-0.45;100.00;93754.31;5013288;28;24420;-73
2021/11/28 06:31:29;;;;;;;8.45;5.90;;;;;;;-0.44;100.00;93756.78;5013332;28;24804;-73
2021/11/28 06:33:56;;;;;;;7.13;5.55;;;;;;;-0.44;100.00;93758.50;5013280;28;24859;-73
2021/11/28 06:36:22;;;;;;;7.45;4.15;;;;;;;-0.40;100.00;93754.91;5012869;28;24436;-73
2021/11/28 06:38:50;;;;;;;4.82;3.78;;;;;;;-0.38;100.00;93748.81;5012982;28;24943;-72
2021/11/28 06:41:17;;;;;;;5.72;3.38;;;;;;;-0.39;100.00;93754.81;5013231;28;24463;-72
2021/11/28 06:43:43;;;;;;;7.13;5.38;;;;;;;-0.46;100.00;93752.69;5012980;28;24524;-72
2021/11/28 06:46:10;;;;;;;7.35;5.38;;;;;;;-0.56;100.00;93755.69;5012848;28;24495;-72
2021/11/28 06:48:36;;;;;;;8.10;5.18;;;;;;;-0.61;100.00;93747.47;5013017;28;24478;-72
2021/11/28 06:51:03;;;;;;;5.40;4.65;;;;;;;-0.60;100.00;93746.56;5012847;28;24428;-73
2021/11/28 06:53:29;;;;;;;5.47;4.68;;;;;;;-0.59;100.00;93747.41;5012650;28;24428;-72
2021/11/28 06:55:57;;;;;;;6.18;4.35;;;;;;;-0.57;100.00;93748.97;5012564;28;24421;-73
2021/11/28 06:58:24;;;;;;;7.93;4.30;;;;;;;-0.58;100.00;93749.88;5012703;28;24483;-72
2021/11/28 07:00:50;;;;;;;5.80;3.83;;;;;;;-0.55;100.00;93753.97;5012620;28;24421;-73
2021/11/28 07:03:17;;;;;;;4.00;2.97;;;;;;;-0.45;100.00;93754.31;5012422;28;24424;-73
2021/11/28 07:05:44;;;;;;;6.40;3.75;;;;;;;-0.38;100.00;93759.00;5011882;28;24413;-73
2021/11/28 07:08:10;;;;;;;5.68;3.58;;;;;;;-0.31;100.00;93762.03;5011904;28;24474;-72
2021/11/28 07:10:39;;;;;;;5.70;3.08;;;;;;;-0.26;100.00;93758.38;5012213;28;24440;-73
2021/11/28 07:13:07;;;;;;;4.65;3.22;;;;;;;-0.29;100.00;93755.97;5012169;28;24432;-73
2021/11/28 07:15:34;;;;;;;3.67;2.83;;;;;;;-0.24;100.00;93760.81;5011589;28;25000;-73
2021/11/28 07:18:00;;;;;;;5.32;2.78;;;;;;;-0.17;100.00;93761.31;5011710;28;24431;-73
2021/11/28 07:20:27;;;;;;;5.25;3.22;;;;;;;-0.15;100.00;93773.06;5011649;28;24417;-73
2021/11/28 07:22:53;;;;;;;5.32;2.75;;;;;;;-0.06;100.00;93772.56;5011885;28;24419;-72
2021/11/28 07:25:21;;;;;;;4.30;3.13;;;;;;;-0.07;100.00;93780.28;5012116;28;24423;-73
2021/11/28 07:27:47;;;;;;;3.03;2.70;;;;;;;-0.12;100.00;93780.50;5012199;28;24432;-73
2021/11/28 07:30:15;;;;;;;5.78;3.25;;;;;;;-0.09;100.00;93774.44;5012209;28;24447;-72
2021/11/28 07:32:42;;;;;;;3.75;2.95;;;;;;;-0.12;100.00;93772.06;5012098;28;24416;-72
2021/11/28 07:35:09;;;;;;;4.93;3.22;;;;;;;-0.17;100.00;93779.13;5011588;28;24977;-73
2021/11/28 07:37:35;;;;;;;4.35;3.22;;;;;;;-0.17;100.00;93779.94;5011996;28;24828;-72
2021/11/28 07:40:02;;;;;;;5.47;3.40;;;;;;;-0.11;100.00;93779.63;5012152;28;24482;-73
2021/11/28 07:42:29;;;;;;;6.63;3.47;;;;;;;-0.18;100.00;93782.59;5011792;28;24422;-71
2021/11/28 07:44:56;;;;;;;6.05;4.55;;;;;;;-0.20;100.00;93781.81;5011724;28;24428;-71
2021/11/28 07:47:23;;;;;;;19.67;13.18;;;;;;;-0.22;100.00;93786.16;5011809;28;24454;-72
2021/11/28 07:49:50;;;;;;;24.20;14.90;;;;;;;-0.20;100.00;93782.66;5012314;28;24482;-72
2021/11/28 07:52:16;;;;;;;16.48;10.30;;;;;;;-0.16;100.00;93779.03;5012048;28;24452;-73
2021/11/28 07:54:43;;;;;;;10.75;8.27;;;;;;;-0.30;100.00;93778.94;5011801;28;24424;-72
2021/11/28 07:57:09;;;;;;;6.03;5.35;;;;;;;-0.29;100.00;93768.69;5011525;28;24432;-72
2021/11/28 07:59:37;;;;;;;7.20;5.25;;;;;;;-0.29;100.00;93788.22;5011795;28;24803;-72
2021/11/28 08:02:04;;;;;;;5.18;4.25;;;;;;;-0.23;100.00;93781.97;5011583;28;24474;-72
2021/11/28 08:04:32;;;;;;;6.57;4.47;;;;;;;-0.16;100.00;93780.75;5011494;28;24421;-72
2021/11/28 08:06:59;;;;;;;5.95;4.15;;;;;;;-0.10;100.00;93781.25;5011261;28;24437;-72
2021/11/28 08:09:26;;;;;;;16.27;11.25;;;;;;;-0.20;100.00;93786.91;5011666;28;24419;-72
2021/11/28 08:11:53;;;;;;;32.67;20.65;;;;;;;-0.44;100.00;93794.13;5011382;28;24444;-72
2021/11/28 08:14:19;;;;;;;9.60;5.50;;;;;;;-0.61;100.00;93798.34;5011460;28;24963;-72
2021/11/28 08:16:46;;;;;;;6.33;3.50;;;;;;;-0.65;100.00;93799.38;5010488;28;24489;-72
2021/11/28 08:19:12;;;;;;;6.57;4.10;;;;;;;-0.56;100.00;93800.63;5011025;28;25230;-73
2021/11/28 08:21:40;;;;;;;6.97;5.07;;;;;;;-0.45;100.00;93798.34;5011329;28;24969;-72
2021/11/28 08:24:06;;;;;;;6.72;6.00;;;;;;;-0.36;100.00;93799.63;5011478;28;24431;-72
2021/11/28 08:26:35;;;;;;;7.80;5.23;;;;;;;-0.30;100.00;93799.28;4998352;28;24444;-72
2021/11/28 08:29:03;;;;;;;4.78;3.83;;;;;;;-0.39;100.00;93802.31;4990304;28;24433;-71
2021/11/28 08:31:30;;;;;;;5.10;3.53;;;;;;;-0.30;100.00;93801.81;4990830;28;25029;-73
2021/11/28 08:33:56;;;;;;;6.45;4.82;;;;;;;-0.37;100.00;93795.41;4991657;28;24428;-72
2021/11/28 08:36:23;;;;;;;5.50;3.72;;;;;;;-0.34;100.00;93795.25;4991401;28;24487;-72
2021/11/28 08:38:52;;;;;;;8.77;6.50;;;;;;;-0.25;100.00;93803.25;4991568;28;24421;-73
2021/11/28 08:41:22;;;;;;;8.10;5.67;;;;;;;-0.21;100.00;93798.81;4991375;28;24515;-72
2021/11/28 08:43:49;;;;;;;5.55;4.25;;;;;;;-0.13;100.00;93806.03;4991450;28;24432;-72
2021/11/28 08:46:16;;;;;;;7.00;4.30;;;;;;;-0.07;100.00;93813.38;4991190;28;24480;-73
2021/11/28 08:48:43;;;;;;;6.70;4.40;;;;;;;-0.24;100.00;93816.78;4993583;28;24424;-73
2021/11/28 08:51:10;;;;;;;8.77;6.60;;;;;;;-0.26;100.00;93821.13;5000719;28;25073;-72
2021/11/28 08:53:37;;;;;;;10.63;7.25;;;;;;;-0.23;100.00;93813.31;4999477;28;24847;-71
2021/11/28 08:56:06;;;;;;;6.32;4.88;;;;;;;-0.14;100.00;93822.22;4999112;28;24459;-72
2021/11/28 08:58:33;;;;;;;4.10;3.70;;;;;;;-0.03;100.00;93825.03;4998007;28;24444;-72
2021/11/28 09:01:00;;;;;;;11.23;3.33;;;;;;;0.07;100.00;93820.25;5000300;28;24457;-73
2021/11/28 09:03:27;;;;;;;5.05;3.05;;;;;;;0.14;100.00;93824.09;5001763;28;24487;-73
2021/11/28 09:05:53;;;;;;;3.10;2.50;;;;;;;0.14;100.00;93830.03;4998769;28;24461;-72
2021/11/28 09:08:22;;;;;;;3.38;2.20;;;;;;;0.27;100.00;93829.38;5001421;28;24792;-73
2021/11/28 09:10:48;;;;;;;3.63;2.63;;;;;;;0.34;100.00;93833.25;4993542;28;24456;-73
2021/11/28 09:13:16;;;;;;;2.95;2.30;;;;;;;0.41;100.00;93835.38;4991218;28;24444;-72
2021/11/28 09:15:43;;;;;;;3.17;2.53;;;;;;;0.56;100.00;93843.91;4990938;28;24416;-72
2021/11/28 09:18:14;;;;;;;4.32;2.85;;;;;;;0.94;100.00;93835.84;4991074;28;24509;-72
2021/11/28 09:20:44;;;;;;;5.03;2.75;;;;;;;0.96;100.00;93844.22;4991197;28;24425;-72
2021/11/28 09:25:55;;;;;;;3.25;2.67;;;;;;;0.74;100.00;93862.44;4999434;28;24432;-72
2021/11/28 09:28:23;;;;;;;4.27;2.70;;;;;;;0.70;100.00;93856.72;5010751;28;24498;-72
2021/11/28 09:30:50;;;;;;;4.47;2.67;;;;;;;0.72;100.00;93859.16;5014030;28;24850;-71
2021/11/28 09:33:17;;;;;;;4.00;2.58;;;;;;;0.70;100.00;93864.34;5013358;28;24447;-72
2021/11/28 09:35:43;;;;;;;4.83;3.00;;;;;;;0.70;100.00;93856.72;5014046;28;24435;-72
2021/11/28 09:38:10;;;;;;;3.13;2.70;;;;;;;0.77;100.00;93856.34;4997052;28;24851;-71
2021/11/28 09:40:37;;;;;;;5.57;3.03;;;;;;;0.76;100.00;93852.16;4994910;28;24421;-71
2021/11/28 09:43:05;;;;;;;4.03;2.83;;;;;;;0.99;100.00;93854.25;4994464;28;24943;-72
2021/11/28 09:45:33;;;;;;;6.60;3.47;;;;;;;0.84;100.00;93847.47;5013614;28;25121;-71
2021/11/28 09:48:01;;;;;;;8.95;3.25;;;;;;;0.73;100.00;93858.25;4995270;28;24429;-71
2021/11/28 09:50:28;;;;;;;5.07;2.95;;;;;;;0.81;100.00;93843.34;4994787;28;24413;-71
2021/11/28 09:52:55;;;;;;;4.40;3.05;;;;;;;0.79;100.00;93850.28;4994302;28;24444;-71
2021/11/28 09:55:23;;;;;;;5.50;3.25;;;;;;;0.78;100.00;93843.53;4998188;28;24429;-71
2021/11/28 09:57:50;;;;;;;3.85;3.03;;;;;;;1.05;100.00;93841.16;5013995;28;24424;-71
2021/11/28 10:00:20;;;;;;;3.80;2.70;;;;;;;0.94;100.00;93835.84;5014019;28;24451;-71
2021/11/28 10:02:48;;;;;;;3.92;2.67;;;;;;;1.00;100.00;93832.13;5013705;28;24974;-71
2021/11/28 10:05:15;;;;;;;8.00;3.15;;;;;;;1.14;100.00;93824.50;5013497;28;24486;-71
2021/11/28 10:07:43;;;;;;;2.70;2.37;;;;;;;1.00;100.00;93830.38;5014051;28;24513;-71
2021/11/28 10:10:10;;;;;;;4.15;2.95;;;;;;;0.88;100.00;93821.72;5013607;28;24997;-71
2021/11/28 10:12:42;;;;;;;3.67;3.20;;;;;;;0.85;100.00;93829.53;5013714;28;24451;-71
2021/11/28 10:15:13;;;;;;;4.80;3.60;;;;;;;0.82;100.00;93829.72;5013388;28;24424;-72
2021/11/28 10:17:40;;;;;;;6.50;5.15;;;;;;;0.78;100.00;93825.72;5013359;28;24974;-73
2021/11/28 10:20:12;;;;;;;7.63;5.85;;;;;;;0.81;100.00;93827.25;5013547;28;24416;-73
2021/11/28 10:22:39;;;;;;;11.80;6.07;;;;;;;0.79;100.00;93824.78;5015811;28;24490;-72
2021/11/28 10:25:15;;;;;;;7.60;6.25;;;;;;;0.64;100.00;93816.28;5012679;28;24436;-73
2021/11/28 10:27:45;;;;;;;7.93;6.00;;;;;;;0.68;100.00;93812.66;5013242;28;24436;-73
2021/11/28 10:30:13;;;;;;;5.88;4.30;;;;;;;0.78;100.00;93814.66;5013394;28;24663;-73
2021/11/28 10:32:45;;;;;;;6.53;4.05;;;;;;;0.89;100.00;93813.19;5013383;28;24507;-72
2021/11/28 10:35:14;;;;;;;5.30;4.25;;;;;;;1.04;100.00;93816.59;5013073;28;24791;-73
2021/11/28 10:37:42;;;;;;;4.32;3.60;;;;;;;1.09;100.00;93812.03;5013944;28;24822;-74
2021/11/28 10:40:11;;;;;;;3.85;3.13;;;;;;;1.34;100.00;93810.63;5012757;28;24416;-73
2021/11/28 10:42:38;;;;;;;3.85;2.90;;;;;;;1.08;100.00;93805.31;5013252;28;24417;-73
2021/11/28 10:45:10;;;;;;;5.38;3.30;;;;;;;1.04;100.00;93819.16;5012977;28;24432;-73
2021/11/28 10:47:39;;;;;;;5.43;3.53;;;;;;;1.21;100.00;93806.22;5012781;28;24432;-73
2021/11/28 10:50:15;;;;;;;4.72;3.60;;;;;;;1.24;100.00;93810.34;5013038;28;24424;-74
2021/11/28 10:52:44;;;;;;;5.40;3.53;;;;;;;1.12;100.00;93811.88;5012881;28;24436;-73
2021/11/28 10:55:12;;;;;;;4.25;3.55;;;;;;;1.04;100.00;93803.84;5012609;28;24428;-73
2021/11/28 10:57:39;;;;;;;5.23;4.23;;;;;;;0.99;100.00;93808.38;5012947;28;24440;-73
2021/11/28 11:00:10;;;;;;;6.50;3.88;;;;;;;0.98;100.00;93800.81;5012946;28;24474;-73
2021/11/28 11:02:38;;;;;;;5.28;3.58;;;;;;;1.03;100.00;93798.81;5012919;28;24429;-73
2021/11/28 11:05:06;;;;;;;5.22;3.70;;;;;;;1.05;100.00;93797.00;5012493;28;24473;-73
2021/11/28 11:07:43;;;;;;;7.23;4.00;;;;;;;1.10;100.00;93802.66;5012967;28;24450;-73
2021/11/28 11:10:18;;;;;;;7.47;3.25;;;;;;;1.07;100.00;93802.84;5012701;28;24428;-73
2021/11/28 11:12:45;;;;;;;4.93;3.50;;;;;;;1.00;100.00;93802.34;5012717;28;24452;-73
2021/11/28 11:15:15;;;;;;;9.75;4.38;;;;;;;1.06;100.00;93799.47;5012523;28;24429;-73
2021/11/28 11:17:56;;;;;;;6.43;4.00;;;;;;;0.95;100.00;93797.53;5012476;28;24938;-73
2021/11/28 11:20:25;;;;;;;6.72;3.67;;;;;;;0.95;100.00;93805.16;5012332;28;24425;-73
2021/11/28 11:22:53;;;;;;;6.88;5.05;;;;;;;0.96;100.00;93806.84;5012670;28;24463;-73
2021/11/28 11:25:21;;;;;;;4.97;4.20;;;;;;;1.06;100.00;93801.19;5012264;28;24424;-73
2021/11/28 11:27:49;;;;;;;6.75;4.05;;;;;;;1.00;100.00;93807.44;5012337;28;24460;-72
2021/11/28 11:30:18;;;;;;;4.53;3.38;;;;;;;0.95;100.00;93807.72;5012448;28;24863;-72